createdAt,value
2018-01-27T00:00:11.773Z,65.10
2018-01-27T00:02:39.523Z,60.72
2018-01-27T00:05:08.110Z,58.17
2018-01-27T00:07:35.860Z,65.28
2018-01-27T00:10:03.615Z,63.33
2018-01-27T00:12:31.414Z,67.32
2018-01-27T00:14:59.166Z,69.62
2018-01-27T00:17:26.924Z,55.97
2018-01-27T00:19:54.743Z,65.10
2018-01-27T00:22:22.490Z,64.47
2018-01-27T00:24:51.010Z,58.35
2018-01-27T00:27:18.822Z,64.07
2018-01-27T00:29:47.338Z,65.82
2018-01-27T00:32:15.092Z,63.80
2018-01-27T00:34:42.894Z,62.45
2018-01-27T00:37:10.642Z,53.78
2018-01-27T00:39:38.405Z,69.55
2018-01-27T00:42:06.216Z,60.97
2018-01-27T00:44:34.762Z,76.20
2018-01-27T00:47:02.512Z,61.83
2018-01-27T00:49:30.315Z,68.12
2018-01-27T00:51:58.827Z,48.85
2018-01-27T00:54:26.575Z,58.25
2018-01-27T00:56:54.378Z,61.55
2018-01-27T00:59:22.130Z,69.00
2018-01-27T01:01:49.883Z,61.42
2018-01-27T01:04:17.690Z,56.95
2018-01-27T01:06:45.434Z,70.50
2018-01-27T01:09:13.182Z,58.00
2018-01-27T01:11:40.986Z,56.63
2018-01-27T01:14:09.502Z,58.00
2018-01-27T01:16:37.261Z,61.03
2018-01-27T01:19:05.062Z,61.08
2018-01-27T01:21:32.807Z,53.75
2018-01-27T01:24:00.567Z,56.28
2018-01-27T01:26:28.379Z,51.80
2018-01-27T01:28:56.899Z,56.75
2018-01-27T01:31:24.667Z,68.12
2018-01-27T01:33:52.470Z,49.85
2018-01-27T01:36:20.225Z,58.47
2018-01-27T01:38:47.987Z,62.10
2018-01-27T01:41:15.785Z,55.12
2018-01-27T01:43:49.115Z,62.53
2018-01-27T01:46:16.914Z,60.60
2018-01-27T01:48:44.665Z,57.20
2018-01-27T01:51:12.419Z,50.58
2018-01-27T01:53:40.221Z,51.22
2018-01-27T01:56:07.975Z,58.08
2018-01-27T01:58:36.489Z,55.25
2018-01-27T02:01:04.301Z,66.30
2018-01-27T02:03:32.826Z,56.70
2018-01-27T02:06:00.579Z,51.10
2018-01-27T02:08:28.599Z,51.50
2018-01-27T02:10:56.362Z,60.67
2018-01-27T02:13:24.113Z,51.65
2018-01-27T02:15:51.921Z,54.17
2018-01-27T02:18:19.666Z,45.47
2018-01-27T02:20:47.412Z,58.60
2018-01-27T02:23:15.217Z,51.95
2018-01-27T02:25:42.967Z,54.75
2018-01-27T02:28:10.735Z,51.95
2018-01-27T02:30:38.534Z,51.83
2018-01-27T02:33:06.281Z,55.50
2018-01-27T02:35:34.034Z,50.40
2018-01-27T02:38:01.869Z,57.13
2018-01-27T02:40:30.387Z,58.50
2018-01-27T02:42:58.135Z,58.20
2018-01-27T02:45:25.934Z,59.28
2018-01-27T02:47:53.701Z,56.60
2018-01-27T02:50:21.454Z,57.92
2018-01-27T02:52:50.065Z,50.97
2018-01-27T02:55:18.581Z,59.97
2018-01-27T02:57:46.327Z,54.25
2018-01-27T03:00:14.138Z,57.75
2018-01-27T03:02:41.888Z,58.25
2018-01-27T03:05:09.637Z,58.72
2018-01-27T03:07:37.448Z,62.97
2018-01-27T03:10:05.199Z,61.53
2018-01-27T03:12:32.954Z,53.70
2018-01-27T03:15:00.767Z,65.65
2018-01-27T03:17:28.528Z,58.30
2018-01-27T03:19:56.314Z,55.12
2018-01-27T03:22:24.125Z,60.95
2018-01-27T03:24:51.885Z,60.45
2018-01-27T03:27:19.631Z,61.03
2018-01-27T03:29:47.431Z,53.60
2018-01-27T03:32:15.185Z,66.05
2018-01-27T03:34:43.700Z,53.78
2018-01-27T03:37:11.497Z,57.97
2018-01-27T03:39:39.249Z,60.80
2018-01-27T03:42:07.777Z,56.13
2018-01-27T03:44:35.589Z,57.78
2018-01-27T03:47:03.346Z,53.53
2018-01-27T03:49:31.114Z,52.92
2018-01-27T03:51:58.913Z,58.42
2018-01-27T03:54:27.426Z,49.15
2018-01-27T03:56:55.178Z,55.38
2018-01-27T03:59:22.982Z,50.08
2018-01-27T04:01:50.735Z,59.90
2018-01-27T04:04:18.490Z,57.25
2018-01-27T04:06:46.290Z,55.58
2018-01-27T04:09:14.047Z,54.15
2018-01-27T04:11:41.814Z,53.92
2018-01-27T04:14:10.388Z,65.07
2018-01-27T04:16:38.142Z,54.55
2018-01-27T04:19:05.889Z,59.08
2018-01-27T04:21:33.694Z,57.08
2018-01-27T04:24:02.228Z,64.78
2018-01-27T04:26:29.974Z,55.53
2018-01-27T04:28:57.875Z,69.43
2018-01-27T04:31:25.632Z,64.93
2018-01-27T04:33:53.406Z,78.68
2018-01-27T04:36:21.227Z,62.90
2018-01-27T04:38:48.982Z,67.40
2018-01-27T04:41:16.733Z,65.10
2018-01-27T04:43:44.543Z,65.20
2018-01-27T04:46:12.290Z,71.10
2018-01-27T04:48:40.043Z,64.87
2018-01-27T04:51:07.842Z,75.87
2018-01-27T04:53:35.593Z,73.57
2018-01-27T04:56:03.350Z,70.70
2018-01-27T04:58:31.158Z,76.10
2018-01-27T05:00:58.910Z,75.55
2018-01-27T05:03:27.428Z,66.82
2018-01-27T05:05:55.231Z,68.47
2018-01-27T05:08:23.030Z,66.53
2018-01-27T05:10:50.784Z,80.87
2018-01-27T05:13:18.822Z,90.82
2018-01-27T05:15:46.577Z,74.37
2018-01-27T05:18:14.327Z,81.00
2018-01-27T05:20:42.179Z,76.60
2018-01-27T05:23:09.925Z,73.53
2018-01-27T05:25:37.674Z,90.47
2018-01-27T05:28:05.478Z,79.85
2018-01-27T05:30:33.230Z,95.75
2018-01-27T05:33:00.978Z,82.47
2018-01-27T05:35:28.779Z,79.45
2018-01-27T05:37:56.531Z,80.22
2018-01-27T05:40:24.278Z,96.20
2018-01-27T05:42:52.252Z,83.03
2018-01-27T05:45:20.006Z,93.70
2018-01-27T05:47:47.812Z,97.72
2018-01-27T05:50:15.622Z,79.93
2018-01-27T05:52:43.371Z,87.40
2018-01-27T05:55:11.119Z,92.00
2018-01-27T05:57:38.921Z,91.20
2018-01-27T06:00:06.677Z,85.57
2018-01-27T06:02:34.422Z,80.22
2018-01-27T06:05:02.226Z,67.70
2018-01-27T06:07:29.970Z,94.75
2018-01-27T06:09:57.732Z,80.72
2018-01-27T06:12:25.540Z,79.57
2018-01-27T06:14:53.299Z,76.68
2018-01-27T06:17:21.054Z,68.28
2018-01-27T06:19:49.627Z,85.07
2018-01-27T06:22:18.154Z,85.55
2018-01-27T06:24:45.907Z,82.12
2018-01-27T06:27:13.713Z,74.93
2018-01-27T06:29:41.471Z,67.32
2018-01-27T06:32:09.222Z,75.95
2018-01-27T06:34:37.030Z,77.53
2018-01-27T06:37:04.778Z,69.57
2018-01-27T06:39:33.291Z,84.45
2018-01-27T06:42:01.136Z,74.07
2018-01-27T06:44:28.899Z,70.75
2018-01-27T06:46:56.646Z,79.60
2018-01-27T06:49:25.222Z,72.18
2018-01-27T06:51:53.735Z,81.37
2018-01-27T06:54:21.483Z,68.62
2018-01-27T06:56:49.291Z,72.93
2018-01-27T06:59:17.053Z,77.55
2018-01-27T07:01:44.804Z,66.82
2018-01-27T07:04:12.616Z,68.40
2018-01-27T07:06:41.126Z,65.68
2018-01-27T07:09:08.878Z,69.65
2018-01-27T07:11:36.686Z,74.87
2018-01-27T07:14:04.443Z,65.47
2018-01-27T07:16:32.246Z,68.68
2018-01-27T07:19:00.813Z,69.65
2018-01-27T07:21:29.364Z,66.20
2018-01-27T07:23:57.118Z,68.75
2018-01-27T07:26:25.690Z,69.97
2018-01-27T07:28:53.447Z,56.13
2018-01-27T07:31:21.195Z,59.05
2018-01-27T07:33:49.010Z,65.32
2018-01-27T07:36:16.761Z,69.12
2018-01-27T07:38:44.516Z,65.25
2018-01-27T07:41:12.320Z,72.97
2018-01-27T07:43:40.835Z,71.05
2018-01-27T07:46:08.585Z,72.85
2018-01-27T07:48:36.399Z,71.32
2018-01-27T07:51:04.205Z,80.10
2018-01-27T07:53:31.955Z,63.80
2018-01-27T07:55:59.758Z,79.72
2018-01-27T07:58:27.506Z,77.87
2018-01-27T08:00:55.261Z,65.43
2018-01-27T08:03:23.063Z,78.87
2018-01-27T08:05:50.816Z,78.40
2018-01-27T08:08:18.572Z,89.28
2018-01-27T08:10:46.371Z,67.62
2018-01-27T08:13:14.894Z,69.45
2018-01-27T08:15:42.642Z,75.87
2018-01-27T08:18:10.451Z,73.80
2018-01-27T08:20:38.200Z,79.37
2018-01-27T08:23:05.953Z,86.43
2018-01-27T08:25:33.758Z,85.60
2018-01-27T08:28:01.514Z,90.87
2018-01-27T08:30:29.262Z,89.78
2018-01-27T08:32:57.675Z,71.78
2018-01-27T08:35:26.190Z,90.97
2018-01-27T08:37:53.939Z,81.20
2018-01-27T08:40:21.754Z,66.68
2018-01-27T08:42:49.527Z,84.05
2018-01-27T08:45:18.045Z,72.25
2018-01-27T08:47:45.846Z,69.70
2018-01-27T08:50:13.602Z,67.97
2018-01-27T08:52:41.383Z,64.00
2018-01-27T08:55:09.201Z,64.53
2018-01-27T08:57:36.974Z,66.97
2018-01-27T09:00:04.735Z,58.47
2018-01-27T09:02:32.544Z,68.22
2018-01-27T09:05:01.086Z,73.80
2018-01-27T09:07:29.606Z,50.47
2018-01-27T09:09:58.176Z,65.05
2018-01-27T09:12:25.926Z,63.60
2018-01-27T09:14:53.724Z,60.45
2018-01-27T09:17:22.307Z,58.65
2018-01-27T09:19:50.075Z,53.90
2018-01-27T09:22:17.830Z,53.55
2018-01-27T09:24:45.634Z,79.18
2018-01-27T09:27:13.417Z,120.10
2018-01-27T09:29:41.166Z,87.25
2018-01-27T09:32:08.970Z,64.45
2018-01-27T09:34:37.482Z,65.50
2018-01-27T09:37:05.227Z,57.78
2018-01-27T09:39:33.054Z,67.07
2018-01-27T09:42:00.802Z,53.28
2018-01-27T09:44:28.553Z,55.92
2018-01-27T09:46:56.355Z,51.90
2018-01-27T09:49:24.867Z,50.10
2018-01-27T09:51:52.618Z,44.08
2018-01-27T09:54:20.423Z,55.03
2018-01-27T09:56:48.175Z,56.08
2018-01-27T09:59:15.950Z,49.55
2018-01-27T10:01:43.759Z,61.40
2018-01-27T10:04:11.507Z,50.33
2018-01-27T10:06:40.026Z,56.75
2018-01-27T10:09:07.852Z,46.78
2018-01-27T10:11:36.367Z,38.95
2018-01-27T10:14:04.125Z,37.85
2018-01-27T10:16:31.933Z,33.70
2018-01-27T10:18:59.688Z,33.63
2018-01-27T10:21:27.468Z,33.13
2018-01-27T10:23:56.098Z,35.90
2018-01-27T10:26:23.850Z,30.12
2018-01-27T10:28:51.599Z,36.90
2018-01-27T10:31:19.398Z,35.55
2018-01-27T10:33:47.151Z,25.80
2018-01-27T10:36:14.904Z,32.95
2018-01-27T10:38:42.715Z,30.10
2018-01-27T10:41:10.467Z,27.73
2018-01-27T10:43:39.552Z,26.42
2018-01-27T10:46:07.529Z,31.65
2018-01-27T10:48:35.625Z,31.12
2018-01-27T10:51:04.144Z,28.58
2018-01-27T10:53:31.947Z,28.02
2018-01-27T10:55:59.697Z,31.65
2018-01-27T10:58:27.455Z,31.42
2018-01-27T11:00:55.338Z,30.33
2018-01-27T11:03:23.874Z,35.85
2018-01-27T11:05:51.630Z,35.28
2018-01-27T11:08:19.439Z,32.50
2018-01-27T11:10:47.310Z,28.87
2018-01-27T11:13:15.110Z,33.03
2018-01-27T11:15:42.910Z,33.03
2018-01-27T11:18:11.538Z,33.22
2018-01-27T11:20:40.051Z,29.33
2018-01-27T11:23:07.855Z,29.73
2018-01-27T11:25:36.421Z,28.70
2018-01-27T11:28:04.172Z,28.33
2018-01-27T11:30:31.980Z,32.67
2018-01-27T11:33:00.499Z,28.77
2018-01-27T11:35:28.254Z,27.65
2018-01-27T11:37:56.058Z,23.60
2018-01-27T11:40:24.306Z,29.37
2018-01-27T11:42:53.063Z,24.67
2018-01-27T11:45:20.899Z,28.00
2018-01-27T11:47:49.413Z,28.70
2018-01-27T11:50:17.171Z,25.60
2018-01-27T11:52:45.165Z,26.42
2018-01-27T11:55:12.946Z,23.33
2018-01-27T11:57:40.710Z,26.80
2018-01-27T12:00:08.534Z,30.08
2018-01-27T12:02:36.299Z,29.95
2018-01-27T12:05:04.071Z,27.65
2018-01-27T12:07:31.884Z,30.52
2018-01-27T12:10:00.432Z,28.65
2018-01-27T12:12:28.241Z,26.45
2018-01-27T12:14:56.054Z,30.40
2018-01-27T12:17:23.811Z,26.98
2018-01-27T12:19:51.571Z,26.27
2018-01-27T12:22:19.398Z,26.90
2018-01-27T12:24:47.207Z,25.17
2018-01-27T12:27:14.967Z,21.60
2018-01-27T12:29:42.767Z,25.05
2018-01-27T12:32:10.526Z,28.92
2018-01-27T12:34:39.049Z,24.25
2018-01-27T12:37:06.898Z,25.90
2018-01-27T12:39:34.693Z,26.70
2018-01-27T12:42:02.462Z,25.05
2018-01-27T12:44:30.420Z,27.25
2018-01-27T12:46:58.372Z,27.95
2018-01-27T12:49:26.226Z,23.95
2018-01-27T12:51:54.052Z,26.85
2018-01-27T12:54:22.856Z,23.05
2018-01-27T12:56:50.650Z,22.23
2018-01-27T12:59:18.467Z,21.70
2018-01-27T13:01:46.225Z,25.42
2018-01-27T13:04:15.089Z,25.25
2018-01-27T13:06:42.970Z,24.37
2018-01-27T13:09:11.491Z,23.48
2018-01-27T13:11:39.246Z,23.42
2018-01-27T13:14:07.138Z,23.98
2018-01-27T13:16:34.922Z,23.80
2018-01-27T13:19:02.772Z,23.42
2018-01-27T13:21:31.032Z,25.25
2018-01-27T13:23:58.859Z,22.83
2018-01-27T13:26:26.639Z,23.70
2018-01-27T13:28:54.467Z,25.33
2018-01-27T13:31:22.977Z,22.67
2018-01-27T13:33:50.726Z,30.45
2018-01-27T13:36:18.762Z,30.98
2018-01-27T13:38:46.548Z,29.40
2018-01-27T13:41:14.308Z,36.85
2018-01-27T13:43:42.120Z,30.35
2018-01-27T13:46:09.887Z,30.62
2018-01-27T13:48:37.678Z,29.25
2018-01-27T13:51:06.251Z,29.77
2018-01-27T13:53:34.008Z,29.10
2018-01-27T13:56:01.777Z,32.80
2018-01-27T13:58:29.595Z,31.33
2018-01-27T14:00:57.367Z,22.42
2018-01-27T14:03:25.147Z,27.58
2018-01-27T14:05:52.950Z,28.95
2018-01-27T14:08:20.922Z,27.98
2018-01-27T14:10:48.671Z,30.50
2018-01-27T14:13:17.251Z,30.33
2018-01-27T14:15:45.805Z,32.53
2018-01-27T14:18:13.562Z,31.83
2018-01-27T14:20:41.367Z,24.83
2018-01-27T14:23:09.126Z,26.77
2018-01-27T14:25:36.888Z,27.45
2018-01-27T14:28:04.694Z,28.05
2018-01-27T14:30:32.449Z,28.60
2018-01-27T14:33:00.207Z,28.35
2018-01-27T14:35:28.012Z,28.83
2018-01-27T14:37:55.768Z,28.80
2018-01-27T14:40:23.510Z,28.75
2018-01-27T14:42:51.566Z,28.60
2018-01-27T14:45:19.342Z,32.70
2018-01-27T14:47:47.103Z,33.75
2018-01-27T14:50:14.903Z,28.45
2018-01-27T14:52:43.424Z,34.38
2018-01-27T14:55:11.205Z,36.33
2018-01-27T14:57:39.776Z,32.35
2018-01-27T15:00:07.528Z,29.10
2018-01-27T15:02:35.276Z,36.67
2018-01-27T15:05:03.078Z,31.67
2018-01-27T15:07:30.825Z,29.75
2018-01-27T15:09:58.582Z,33.83
2018-01-27T15:12:26.388Z,37.63
2018-01-27T15:14:54.911Z,35.45
2018-01-27T15:17:22.686Z,40.20
2018-01-27T15:19:50.495Z,40.33
2018-01-27T15:22:19.007Z,41.58
2018-01-27T15:24:46.792Z,39.42
2018-01-27T15:27:14.599Z,37.35
2018-01-27T15:29:43.287Z,41.95
2018-01-27T15:32:11.156Z,32.00
2018-01-27T15:34:39.035Z,28.45
2018-01-27T15:37:06.803Z,30.23
2018-01-27T15:39:34.562Z,31.67
2018-01-27T15:42:02.368Z,38.55
2018-01-27T15:44:30.117Z,33.47
2018-01-27T15:46:58.096Z,35.35
2018-01-27T15:49:25.902Z,32.15
2018-01-27T15:51:53.649Z,30.50
2018-01-27T15:54:22.161Z,32.47
2018-01-27T15:56:49.971Z,32.72
2018-01-27T15:59:17.723Z,30.77
2018-01-27T16:01:45.471Z,32.13
2018-01-27T16:04:13.370Z,30.83
2018-01-27T16:06:41.918Z,33.70
2018-01-27T16:09:11.002Z,31.87
2018-01-27T16:11:40.499Z,36.55
2018-01-27T16:14:08.359Z,35.55
2018-01-27T16:16:36.421Z,37.00
2018-01-27T16:19:04.267Z,36.90
2018-01-27T16:21:32.033Z,42.35
2018-01-27T16:23:59.821Z,46.33
2018-01-27T16:26:27.660Z,46.97
2018-01-27T16:28:55.418Z,35.72
2018-01-27T16:31:24.171Z,44.03
2018-01-27T16:33:52.782Z,41.42
2018-01-27T16:36:20.571Z,35.38
2018-01-27T16:38:48.378Z,37.00
2018-01-27T16:41:16.198Z,33.95
2018-01-27T16:43:43.966Z,35.33
2018-01-27T16:46:11.830Z,33.13
2018-01-27T16:48:39.674Z,34.25
2018-01-27T16:51:08.309Z,38.40
2018-01-27T16:53:36.968Z,38.92
2018-01-27T16:56:04.807Z,41.37
2018-01-27T16:58:32.578Z,50.15
2018-01-27T17:01:00.327Z,52.25
2018-01-27T17:03:28.143Z,52.20
2018-01-27T17:05:55.891Z,47.80
2018-01-27T17:08:23.643Z,47.00
2018-01-27T17:10:51.452Z,45.95
2018-01-27T17:13:19.971Z,43.17
2018-01-27T17:15:47.728Z,35.92
2018-01-27T17:18:15.617Z,40.42
2018-01-27T17:20:43.374Z,38.45
2018-01-27T17:23:11.126Z,41.88
2018-01-27T17:25:39.693Z,45.72
2018-01-27T17:28:07.437Z,43.25
2018-01-27T17:30:35.197Z,42.13
2018-01-27T17:33:03.023Z,48.17
2018-01-27T17:35:30.776Z,43.45
2018-01-27T17:37:58.524Z,52.03
2018-01-27T17:40:26.330Z,47.92
2018-01-27T17:42:54.847Z,46.17
2018-01-27T17:45:22.627Z,44.50
2018-01-27T17:47:50.439Z,52.35
2018-01-27T17:50:18.952Z,53.08
2018-01-27T17:52:46.702Z,50.20
2018-01-27T17:55:14.502Z,55.38
2018-01-27T17:57:42.251Z,56.88
2018-01-27T18:00:10.008Z,52.15
2018-01-27T18:02:37.819Z,49.90
2018-01-27T18:05:06.339Z,58.80
2018-01-27T18:07:34.091Z,55.28
2018-01-27T18:10:01.955Z,46.33
2018-01-27T18:12:29.707Z,58.67
2018-01-27T18:14:57.472Z,61.35
2018-01-27T18:17:25.283Z,66.90
2018-01-27T18:19:53.039Z,61.83
2018-01-27T18:22:20.783Z,57.67
2018-01-27T18:24:48.623Z,57.88
2018-01-27T18:27:16.371Z,59.05
2018-01-27T18:29:44.118Z,52.05
2018-01-27T18:32:12.693Z,55.60
2018-01-27T18:34:41.256Z,43.15
2018-01-27T18:37:09.127Z,51.85
2018-01-27T18:39:36.931Z,53.97
2018-01-27T18:42:04.695Z,74.30
2018-01-27T18:44:32.595Z,56.47
2018-01-27T18:47:00.402Z,57.50
2018-01-27T18:49:28.978Z,57.90
2018-01-27T18:51:57.489Z,47.85
2018-01-27T18:54:25.308Z,57.62
2018-01-27T18:56:53.070Z,58.40
2018-01-27T18:59:20.819Z,58.20
2018-01-27T19:01:48.622Z,50.70
2018-01-27T19:04:16.380Z,48.60
2018-01-27T19:06:44.899Z,51.53
2018-01-27T19:09:12.705Z,53.95
2018-01-27T19:11:41.224Z,46.47
2018-01-27T19:14:08.972Z,53.47
2018-01-27T19:16:36.783Z,60.40
2018-01-27T19:19:04.538Z,53.20
2018-01-27T19:21:32.350Z,54.10
2018-01-27T19:24:01.097Z,43.10
2018-01-27T19:26:28.871Z,49.20
2018-01-27T19:28:56.622Z,50.97
2018-01-27T19:31:24.434Z,48.50
2018-01-27T19:33:52.182Z,50.03
2018-01-27T19:36:20.693Z,47.00
2018-01-27T19:38:48.502Z,46.37
2018-01-27T19:41:16.260Z,51.10
2018-01-27T19:43:44.009Z,48.20
2018-01-27T19:46:11.811Z,53.13
2018-01-27T19:48:40.336Z,52.95
2018-01-27T19:51:08.085Z,49.35
2018-01-27T19:53:35.892Z,46.42
2018-01-27T19:56:03.655Z,53.65
2018-01-27T19:58:31.401Z,53.55
2018-01-27T20:00:59.217Z,57.00
2018-01-27T20:03:26.961Z,53.13
2018-01-27T20:05:55.475Z,54.50
2018-01-27T20:08:23.286Z,62.47
2018-01-27T20:10:51.802Z,60.28
2018-01-27T20:13:19.561Z,69.80
2018-01-27T20:15:47.366Z,56.42
2018-01-27T20:18:15.154Z,59.05
2018-01-27T20:20:43.697Z,55.10
2018-01-27T20:23:11.508Z,57.38
2018-01-27T20:25:40.028Z,48.63
2018-01-27T20:28:07.834Z,55.70
2018-01-27T20:30:35.648Z,59.30
2018-01-27T20:33:03.432Z,61.50
2018-01-27T20:35:31.225Z,57.83
2018-01-27T20:37:59.801Z,67.75
2018-01-27T20:40:27.553Z,67.50
2018-01-27T20:42:55.302Z,55.72
2018-01-27T20:45:23.240Z,75.75
2018-01-27T20:47:51.007Z,90.03
2018-01-27T20:50:18.777Z,79.72
2018-01-27T20:52:46.670Z,72.20
2018-01-27T20:55:14.440Z,77.68
2018-01-27T20:57:42.967Z,75.53
2018-01-27T21:00:10.785Z,83.65
2018-01-27T21:02:38.539Z,75.68
2018-01-27T21:05:06.312Z,75.75
2018-01-27T21:07:34.907Z,72.60
2018-01-27T21:10:03.461Z,77.20
2018-01-27T21:12:31.218Z,77.25
2018-01-27T21:14:59.031Z,75.95
2018-01-27T21:17:26.791Z,81.25
2018-01-27T21:19:54.575Z,76.43
2018-01-27T21:22:22.486Z,82.45
2018-01-27T21:24:51.004Z,85.32
2018-01-27T21:27:18.787Z,76.45
2018-01-27T21:29:46.636Z,82.93
2018-01-27T21:32:14.431Z,78.95
2018-01-27T21:34:42.978Z,85.45
2018-01-27T21:37:10.793Z,80.28
2018-01-27T21:39:38.546Z,84.28
2018-01-27T21:42:06.306Z,84.50
2018-01-27T21:44:34.118Z,79.22
2018-01-27T21:47:01.876Z,88.55
2018-01-27T21:49:29.635Z,87.93
2018-01-27T21:51:57.446Z,76.82
2018-01-27T21:54:25.196Z,79.07
2018-01-27T21:56:52.946Z,77.28
2018-01-27T21:59:20.802Z,83.45
2018-01-27T22:01:49.270Z,86.50
2018-01-27T22:04:17.039Z,79.80
2018-01-27T22:06:44.851Z,84.30
2018-01-27T22:09:12.602Z,85.35
2018-01-27T22:11:40.408Z,75.47
2018-01-27T22:14:08.262Z,88.35
2018-01-27T22:16:36.778Z,79.50
2018-01-27T22:19:04.539Z,82.85
2018-01-27T22:21:32.341Z,83.78
2018-01-27T22:24:00.104Z,93.50
2018-01-27T22:26:29.536Z,82.93
2018-01-27T22:28:57.348Z,92.28
2018-01-27T22:31:25.107Z,86.57
2018-01-27T22:33:52.871Z,100.15
2018-01-27T22:36:20.679Z,89.60
2018-01-27T22:38:48.431Z,89.75
2018-01-27T22:41:16.953Z,96.37
2018-01-27T22:43:45.534Z,90.22
2018-01-27T22:46:13.287Z,86.30
2018-01-27T22:48:41.038Z,86.15
2018-01-27T22:51:08.938Z,79.45
2018-01-27T22:53:37.110Z,97.85
2018-01-27T22:56:04.855Z,81.35
2018-01-27T22:58:33.352Z,74.20
2018-01-27T23:01:06.682Z,74.72
2018-01-27T23:03:35.247Z,78.30
2018-01-27T23:06:03.006Z,73.93
2018-01-27T23:08:30.763Z,67.65
2018-01-27T23:10:58.568Z,67.97
2018-01-27T23:13:26.330Z,70.68
2018-01-27T23:15:54.095Z,80.10
2018-01-27T23:18:21.903Z,71.72
2018-01-27T23:20:50.423Z,73.70
2018-01-27T23:23:18.227Z,71.25
2018-01-27T23:25:46.040Z,63.67
2018-01-27T23:28:14.701Z,67.75
2018-01-27T23:30:42.511Z,75.30
2018-01-27T23:33:10.314Z,80.12
2018-01-27T23:35:38.079Z,67.10
2018-01-27T23:38:05.840Z,70.25
2018-01-27T23:40:33.646Z,74.75
2018-01-27T23:43:01.412Z,75.05
2018-01-27T23:45:29.167Z,64.40
2018-01-27T23:47:57.004Z,80.35
2018-01-27T23:50:24.758Z,71.82
2018-01-27T23:52:52.506Z,70.32
2018-01-27T23:55:20.480Z,80.10
2018-01-27T23:57:48.245Z,76.85
